createdAt,value
2019-04-06T00:04:37.896Z,12.70
2019-04-06T00:07:04.143Z,7.77
2019-04-06T00:09:50.155Z,11.23
2019-04-06T00:12:16.435Z,10.97
2019-04-06T00:14:42.692Z,12.43
2019-04-06T00:17:09.012Z,14.10
2019-04-06T00:19:35.284Z,14.00
2019-04-06T00:22:01.519Z,12.60
2019-04-06T00:24:27.779Z,14.37
2019-04-06T00:26:54.016Z,12.77
2019-04-06T00:29:20.269Z,14.63
2019-04-06T00:32:06.373Z,12.57
2019-04-06T00:37:06.758Z,11.27
2019-04-06T00:39:33.009Z,9.23
2019-04-06T00:41:59.242Z,9.40
2019-04-06T00:44:25.508Z,10.80
2019-04-06T00:46:51.740Z,12.10
2019-04-06T00:49:17.995Z,10.27
2019-04-06T00:51:44.239Z,12.50
2019-04-06T00:54:10.483Z,7.67
2019-04-06T00:56:36.711Z,9.87
2019-04-06T00:59:02.963Z,9.73
2019-04-06T01:01:29.350Z,11.03
2019-04-06T01:03:55.644Z,9.97
2019-04-06T01:06:21.896Z,12.00
2019-04-06T01:08:48.153Z,14.17
2019-04-06T01:11:22.096Z,20.37
2019-04-06T01:13:48.332Z,22.67
2019-04-06T01:16:14.580Z,17.60
2019-04-06T01:18:40.872Z,12.27
2019-04-06T01:21:07.267Z,14.70
2019-04-06T01:23:33.526Z,19.30
2019-04-06T01:26:07.175Z,23.57
2019-04-06T01:28:27.935Z,20.10
2019-04-06T01:30:54.211Z,20.43
2019-04-06T01:33:20.445Z,20.90
2019-04-06T01:35:46.698Z,22.17
2019-04-06T01:38:12.936Z,22.03
2019-04-06T01:40:39.201Z,20.23
2019-04-06T01:43:05.435Z,20.10
2019-04-06T01:45:31.746Z,23.57
2019-04-06T01:47:58.032Z,21.53
2019-04-06T01:50:24.290Z,19.93
2019-04-06T01:52:50.545Z,17.97
2019-04-06T01:55:16.798Z,22.77
2019-04-06T01:57:43.044Z,19.37
2019-04-06T02:03:02.769Z,21.87
2019-04-06T02:05:29.150Z,17.90
2019-04-06T02:07:55.367Z,18.93
2019-04-06T02:10:21.606Z,18.03
2019-04-06T02:12:47.862Z,20.07
2019-04-06T02:15:14.197Z,22.33
2019-04-06T02:17:40.462Z,20.80
2019-04-06T02:20:07.016Z,32.63
2019-04-06T02:25:27.094Z,23.40
2019-04-06T02:27:53.350Z,25.83
2019-04-06T02:33:27.136Z,24.70
2019-04-06T02:39:00.805Z,26.97
2019-04-06T02:41:46.795Z,35.20
2019-04-06T02:44:54.647Z,28.63
2019-04-06T02:47:20.872Z,32.93
2019-04-06T02:49:47.121Z,31.10
2019-04-06T02:52:13.359Z,32.40
2019-04-06T02:54:39.859Z,22.23
2019-04-06T02:57:06.146Z,26.83
2019-04-06T02:59:32.395Z,34.13
2019-04-06T03:01:58.630Z,29.03
2019-04-06T03:04:24.909Z,24.77
2019-04-06T03:06:51.163Z,41.37
2019-04-06T03:09:17.395Z,30.77
2019-04-06T03:11:43.655Z,30.07
2019-04-06T03:14:09.925Z,35.47
2019-04-06T03:16:36.280Z,32.77
2019-04-06T03:19:02.687Z,34.50
2019-04-06T03:21:28.935Z,35.67
2019-04-06T03:23:55.172Z,34.63
2019-04-06T03:26:21.417Z,42.53
2019-04-06T03:28:47.650Z,35.77
2019-04-06T03:31:14.222Z,29.13
2019-04-06T03:33:40.477Z,39.70
2019-04-06T03:36:06.710Z,33.20
2019-04-06T03:38:32.966Z,36.73
2019-04-06T03:40:59.211Z,41.33
2019-04-06T03:43:25.627Z,41.23
2019-04-06T03:45:51.886Z,43.83
2019-04-06T03:48:18.117Z,43.83
2019-04-06T03:50:44.384Z,42.53
2019-04-06T03:53:10.615Z,54.20
2019-04-06T03:55:36.894Z,36.73
2019-04-06T03:58:03.148Z,37.47
2019-04-06T04:00:29.374Z,39.17
2019-04-06T04:02:55.604Z,51.70
2019-04-06T04:05:21.883Z,52.83
2019-04-06T04:07:48.143Z,53.67
2019-04-06T04:10:35.147Z,45.73
2019-04-06T04:13:01.382Z,58.77
2019-04-06T04:15:27.612Z,41.33
2019-04-06T04:17:53.863Z,64.77
2019-04-06T04:20:20.092Z,40.17
2019-04-06T04:22:46.353Z,59.07
2019-04-06T04:25:12.629Z,44.60
2019-04-06T04:30:15.230Z,57.27
2019-04-06T04:32:41.300Z,64.93
2019-04-06T04:35:07.645Z,57.67
2019-04-06T04:37:33.894Z,61.50
2019-04-06T04:40:00.135Z,56.73
2019-04-06T04:42:26.389Z,48.87
2019-04-06T04:44:52.628Z,48.13
2019-04-06T04:47:18.877Z,44.93
2019-04-06T04:49:45.136Z,54.33
2019-04-06T04:52:11.391Z,42.30
2019-04-06T04:54:37.633Z,46.00
2019-04-06T04:57:03.887Z,63.30
2019-04-06T04:59:30.146Z,64.30
2019-04-06T05:01:56.396Z,49.57
2019-04-06T05:04:22.642Z,68.50
2019-04-06T05:06:48.878Z,58.33
2019-04-06T05:09:15.124Z,93.27
2019-04-06T05:11:41.366Z,63.93
2019-04-06T05:14:47.126Z,60.77
2019-04-06T05:17:13.407Z,97.43
2019-04-06T05:19:39.647Z,76.97
2019-04-06T05:22:05.881Z,84.13
2019-04-06T05:24:32.137Z,105.17
2019-04-06T05:26:58.372Z,196.83
2019-04-06T05:29:24.683Z,124.73
2019-04-06T05:31:50.975Z,117.67
2019-04-06T05:34:17.229Z,153.87
2019-04-06T05:36:43.492Z,98.93
2019-04-06T05:39:09.735Z,104.00
2019-04-06T05:41:35.968Z,128.43
2019-04-06T05:44:02.425Z,77.00
2019-04-06T05:46:28.736Z,52.57
2019-04-06T05:48:55.015Z,72.50
2019-04-06T05:51:21.265Z,79.20
2019-04-06T05:53:47.562Z,109.83
2019-04-06T05:56:13.775Z,77.40
2019-04-06T05:58:41.275Z,90.47
2019-04-06T06:01:10.347Z,49.50
2019-04-06T06:03:40.136Z,61.17
2019-04-06T06:06:04.967Z,29.37
2019-04-06T06:08:31.251Z,20.37
2019-04-06T06:10:57.503Z,56.20
2019-04-06T06:13:23.948Z,37.07
2019-04-06T06:15:50.214Z,19.50
2019-04-06T06:18:25.840Z,46.67
2019-04-06T06:20:45.269Z,75.97
2019-04-06T06:23:11.629Z,57.27
2019-04-06T06:25:37.876Z,34.80
2019-04-06T06:28:13.745Z,26.77
2019-04-06T06:30:32.330Z,16.47
2019-04-06T06:32:58.566Z,26.37
2019-04-06T06:35:24.811Z,38.83
2019-04-06T06:37:51.054Z,50.57
2019-04-06T06:40:17.322Z,37.70
2019-04-06T06:42:43.557Z,32.67
2019-04-06T06:45:10.078Z,24.70
2019-04-06T06:47:36.408Z,47.50
2019-04-06T06:53:03.193Z,40.57
2019-04-06T06:55:29.457Z,40.70
2019-04-06T06:57:55.704Z,32.10
2019-04-06T07:00:21.948Z,14.67
2019-04-06T07:02:48.194Z,45.53
2019-04-06T07:05:14.435Z,35.97
2019-04-06T07:07:40.689Z,28.60
2019-04-06T07:10:07.023Z,19.83
2019-04-06T07:12:33.271Z,23.03
2019-04-06T07:14:59.509Z,19.87
2019-04-06T07:17:25.776Z,26.90
2019-04-06T07:19:52.007Z,24.47
2019-04-06T07:22:18.267Z,21.53
2019-04-06T07:24:44.504Z,35.77
2019-04-06T07:27:11.035Z,17.13
2019-04-06T07:29:37.279Z,14.07
2019-04-06T07:32:03.560Z,12.87
2019-04-06T07:34:29.793Z,12.93
2019-04-06T07:36:56.051Z,11.53
2019-04-06T07:39:22.308Z,16.47
2019-04-06T07:41:48.542Z,12.20
2019-04-06T07:44:14.781Z,14.53
2019-04-06T07:46:41.023Z,11.90
2019-04-06T07:49:09.317Z,11.47
2019-04-06T07:51:35.407Z,12.13
2019-04-06T07:54:01.654Z,10.57
2019-04-06T07:56:27.911Z,12.87
2019-04-06T07:58:54.151Z,9.40
2019-04-06T08:01:20.402Z,11.07
2019-04-06T08:03:46.865Z,11.23
2019-04-06T08:06:13.094Z,12.03
2019-04-06T08:08:39.341Z,12.57
2019-04-06T08:11:05.574Z,11.23
2019-04-06T08:13:31.839Z,9.20
2019-04-06T08:15:58.081Z,10.67
2019-04-06T08:18:24.338Z,9.30
2019-04-06T08:20:50.671Z,10.03
2019-04-06T08:23:16.915Z,12.03
2019-04-06T08:25:43.173Z,8.70
2019-04-06T08:28:09.421Z,9.57
2019-04-06T08:30:44.808Z,11.23
2019-04-06T08:33:04.103Z,11.17
2019-04-06T08:35:30.422Z,9.53
2019-04-06T08:37:56.649Z,10.70
2019-04-06T08:40:22.897Z,9.13
2019-04-06T08:42:49.132Z,10.63
2019-04-06T08:45:15.399Z,9.00
2019-04-06T08:47:41.690Z,7.57
2019-04-06T08:50:08.227Z,8.60
2019-04-06T08:52:34.422Z,7.20
2019-04-06T08:55:00.657Z,6.80
2019-04-06T08:57:26.895Z,8.23
2019-04-06T08:59:53.142Z,6.67
2019-04-06T09:02:19.375Z,6.20
2019-04-06T09:04:45.648Z,6.13
2019-04-06T09:07:11.879Z,7.97
2019-04-06T09:09:38.122Z,5.23
2019-04-06T09:12:04.375Z,11.00
2019-04-06T09:14:30.641Z,5.83
2019-04-06T09:16:56.876Z,6.83
2019-04-06T09:19:23.127Z,5.43
2019-04-06T09:21:49.511Z,4.20
2019-04-06T09:24:15.860Z,7.17
2019-04-06T09:26:42.307Z,6.63
2019-04-06T09:29:08.584Z,6.03
2019-04-06T09:31:35.167Z,7.13
2019-04-06T09:34:01.404Z,5.17
2019-04-06T09:36:27.672Z,4.77
2019-04-06T09:38:53.905Z,6.70
2019-04-06T09:41:20.163Z,6.53
2019-04-06T09:43:46.408Z,5.40
2019-04-06T09:46:32.509Z,5.80
2019-04-06T09:49:18.535Z,4.97
2019-04-06T09:52:04.844Z,4.80
2019-04-06T09:57:38.492Z,8.03
2019-04-06T10:00:46.052Z,12.87
2019-04-06T10:08:40.189Z,5.53
2019-04-06T10:19:25.449Z,7.57
2019-04-06T10:22:11.421Z,6.00
2019-04-06T10:24:57.512Z,4.60
2019-04-06T10:27:43.511Z,8.37
2019-04-06T10:33:22.417Z,7.67
2019-04-06T10:36:08.726Z,5.83
2019-04-06T10:38:54.797Z,7.00
2019-04-06T10:41:40.828Z,5.37
2019-04-06T10:44:26.815Z,7.50
2019-04-06T10:47:12.820Z,7.20
2019-04-06T10:52:33.265Z,7.53
2019-04-06T10:55:19.278Z,4.53
2019-04-06T10:58:05.282Z,6.93
2019-04-06T11:00:51.299Z,5.93
2019-04-06T11:03:37.299Z,5.77
2019-04-06T11:06:45.125Z,6.83
2019-04-06T11:09:31.184Z,5.63
2019-04-06T11:12:17.220Z,5.63
2019-04-06T11:15:03.468Z,6.80
2019-04-06T11:20:44.884Z,6.50
2019-04-06T11:23:30.881Z,6.63
2019-04-06T11:26:16.889Z,4.70
2019-04-06T11:31:50.757Z,7.47
2019-04-06T11:34:37.223Z,7.33
2019-04-06T11:37:23.249Z,5.37
2019-04-06T11:42:56.850Z,9.10
2019-04-06T11:45:42.856Z,6.37
2019-04-06T11:48:28.870Z,5.67
2019-04-06T11:54:12.229Z,6.67
2019-04-06T11:56:58.197Z,5.67
2019-04-06T11:59:44.202Z,6.40
2019-04-06T12:07:51.503Z,7.63
2019-04-06T12:10:37.512Z,5.00
2019-04-06T12:13:23.498Z,7.30
2019-04-06T12:21:17.417Z,7.13
2019-04-06T12:24:03.486Z,5.67
2019-04-06T12:26:49.643Z,8.33
2019-04-06T12:29:35.685Z,10.00
2019-04-06T12:32:21.669Z,7.27
2019-04-06T12:35:07.686Z,6.63
2019-04-06T12:37:53.672Z,6.73
2019-04-06T12:40:39.682Z,7.83
2019-04-06T12:43:25.670Z,9.13
2019-04-06T12:48:45.808Z,12.23
2019-04-06T12:51:31.854Z,7.13
2019-04-06T12:54:18.722Z,8.33
2019-04-06T12:57:07.567Z,8.83
2019-04-06T12:59:53.692Z,8.87
2019-04-06T13:02:39.697Z,8.53
2019-04-06T13:05:25.918Z,8.50
2019-04-06T13:08:24.827Z,9.80
2019-04-06T13:11:11.122Z,7.97
2019-04-06T13:13:57.446Z,7.93
2019-04-06T13:16:43.541Z,10.00
2019-04-06T13:19:29.711Z,7.87
2019-04-06T13:22:15.794Z,7.73
2019-04-06T13:25:02.917Z,7.53
2019-04-06T13:27:49.388Z,8.43
2019-04-06T13:33:23.350Z,8.13
2019-04-06T13:36:09.369Z,9.70
2019-04-06T13:41:29.448Z,9.17
2019-04-06T13:44:15.840Z,13.87
2019-04-06T13:47:01.859Z,7.27
2019-04-06T13:52:28.684Z,7.73
2019-04-06T13:55:14.760Z,9.03
2019-04-06T14:00:48.405Z,7.33
2019-04-06T14:03:34.721Z,12.03
2019-04-06T14:06:20.740Z,9.37
2019-04-06T14:09:06.774Z,6.60
2019-04-06T14:11:53.056Z,7.63
2019-04-06T14:14:39.055Z,8.60
2019-04-06T14:17:25.069Z,5.83
2019-04-06T14:22:58.666Z,10.33
2019-04-06T14:25:45.721Z,7.97
2019-04-06T14:31:29.934Z,6.97
2019-04-06T14:34:15.485Z,10.10
2019-04-06T14:39:35.509Z,14.47
2019-04-06T14:42:21.735Z,10.27
2019-04-06T14:47:55.333Z,7.33
2019-04-06T14:50:41.704Z,12.37
2019-04-06T14:53:27.954Z,17.87
2019-04-06T15:04:09.173Z,7.37
2019-04-06T15:06:55.290Z,8.03
2019-04-06T15:09:41.349Z,10.70
2019-04-06T15:12:27.783Z,7.43
2019-04-06T15:15:14.193Z,7.93
2019-04-06T15:18:00.167Z,8.60
2019-04-06T15:20:46.191Z,8.50
2019-04-06T15:23:32.197Z,5.93
2019-04-06T15:26:18.325Z,8.57
2019-04-06T15:29:04.408Z,9.03
2019-04-06T15:31:51.779Z,8.90
2019-04-06T15:37:12.367Z,7.27
2019-04-06T15:39:58.611Z,9.43
2019-04-06T15:42:44.575Z,11.43
2019-04-06T15:45:30.592Z,9.90
2019-04-06T15:48:16.595Z,6.77
2019-04-06T15:53:42.219Z,6.50
2019-04-06T15:56:28.293Z,11.43
2019-04-06T15:59:14.276Z,6.60
2019-04-06T16:02:02.954Z,9.97
2019-04-06T16:04:48.166Z,9.17
2019-04-06T16:07:34.242Z,8.03
2019-04-06T16:10:20.602Z,4.80
2019-04-06T16:13:06.615Z,5.83
2019-04-06T16:15:52.614Z,8.27
2019-04-06T16:18:38.631Z,6.63
2019-04-06T16:24:12.648Z,6.93
2019-04-06T16:29:32.995Z,5.47
2019-04-06T16:32:19.100Z,4.53
2019-04-06T16:35:05.379Z,6.57
2019-04-06T16:37:51.725Z,6.07
2019-04-06T16:40:37.706Z,5.40
2019-04-06T16:43:24.620Z,4.50
2019-04-06T16:48:58.379Z,5.53
2019-04-06T16:51:44.368Z,7.17
2019-04-06T16:59:38.277Z,4.27
2019-04-06T17:04:58.231Z,7.87
2019-04-06T17:10:32.186Z,7.23
2019-04-06T17:13:18.286Z,5.10
2019-04-06T17:16:04.276Z,6.67
2019-04-06T17:21:24.075Z,7.00
2019-04-06T17:24:29.876Z,6.97
2019-04-06T17:27:16.208Z,5.93
2019-04-06T17:30:02.238Z,5.70
2019-04-06T17:32:48.220Z,7.90
2019-04-06T17:35:34.672Z,5.93
2019-04-06T17:38:20.952Z,4.77
2019-04-06T17:43:41.573Z,6.60
2019-04-06T17:49:02.218Z,5.83
2019-04-06T17:51:48.522Z,5.90
2019-04-06T17:54:34.893Z,10.10
2019-04-06T18:00:00.659Z,7.07
2019-04-06T18:02:50.010Z,7.30
2019-04-06T18:05:34.587Z,6.70
2019-04-06T18:08:20.612Z,7.33
2019-04-06T18:11:06.603Z,8.43
2019-04-06T18:16:07.043Z,6.47
2019-04-06T18:18:35.230Z,7.30
2019-04-06T18:21:03.305Z,6.70
2019-04-06T18:23:30.047Z,9.67
2019-04-06T18:25:57.723Z,8.00
2019-04-06T18:28:24.059Z,7.13
2019-04-06T18:33:38.063Z,7.13
2019-04-06T18:36:04.352Z,8.43
2019-04-06T18:41:04.792Z,7.53
2019-04-06T18:43:32.660Z,5.23
2019-04-06T18:45:58.882Z,8.40
2019-04-06T18:48:25.137Z,6.93
2019-04-06T18:50:51.785Z,6.53
2019-04-06T18:53:20.488Z,9.57
2019-04-06T18:55:47.042Z,6.33
2019-04-06T18:58:15.378Z,9.00
2019-04-06T19:03:19.413Z,9.40
2019-04-06T19:05:45.671Z,5.77
2019-04-06T19:08:12.049Z,7.10
2019-04-06T19:13:18.273Z,6.17
2019-04-06T19:15:45.912Z,7.50
2019-04-06T19:18:12.167Z,4.53
2019-04-06T19:20:38.451Z,5.53
2019-04-06T19:23:04.695Z,6.30
2019-04-06T19:25:30.951Z,11.33
2019-04-06T19:27:57.192Z,8.73
2019-04-06T19:30:23.948Z,6.70
2019-04-06T19:32:50.597Z,8.37
2019-04-06T19:35:16.997Z,6.37
2019-04-06T19:37:43.281Z,5.90
2019-04-06T19:40:50.858Z,7.10
2019-04-06T19:43:18.546Z,10.70
2019-04-06T19:45:45.535Z,7.03
2019-04-06T19:48:12.473Z,5.97
2019-04-06T19:50:40.749Z,4.93
2019-04-06T19:53:08.520Z,5.07
2019-04-06T19:55:34.768Z,5.00
2019-04-06T19:58:01.310Z,8.57
2019-04-06T20:00:27.681Z,8.73
2019-04-06T20:02:54.016Z,6.83
2019-04-06T20:05:20.703Z,6.50
2019-04-06T20:07:46.936Z,7.43
2019-04-06T20:10:13.183Z,5.87
2019-04-06T20:12:39.433Z,5.80
2019-04-06T20:15:47.446Z,7.07
2019-04-06T20:18:13.841Z,9.53
2019-04-06T20:20:40.099Z,7.13
2019-04-06T20:23:06.384Z,5.97
2019-04-06T20:25:32.947Z,5.83
2019-04-06T20:28:00.823Z,8.17
2019-04-06T20:30:27.182Z,5.73
2019-04-06T20:35:47.595Z,8.40
2019-04-06T20:38:15.221Z,5.40
2019-04-06T20:40:43.553Z,6.17
2019-04-06T20:43:09.787Z,7.83
2019-04-06T20:45:36.038Z,5.60
2019-04-06T20:48:02.897Z,5.27
2019-04-06T20:50:30.874Z,5.80
2019-04-06T20:52:57.125Z,6.57
2019-04-06T20:55:23.400Z,8.33
2019-04-06T20:57:49.658Z,7.70
2019-04-06T21:00:16.546Z,5.47
2019-04-06T21:02:43.006Z,9.47
2019-04-06T21:05:09.292Z,6.93
2019-04-06T21:07:35.532Z,7.13
2019-04-06T21:10:23.352Z,8.23
2019-04-06T21:12:49.846Z,6.60
2019-04-06T21:15:20.596Z,7.23
2019-04-06T21:17:44.901Z,7.67
2019-04-06T21:20:13.076Z,7.20
2019-04-06T21:22:39.640Z,4.40
2019-04-06T21:25:08.400Z,7.87
2019-04-06T21:27:48.944Z,6.57
2019-04-06T21:30:15.227Z,8.00
2019-04-06T21:32:43.640Z,5.30
2019-04-06T21:35:11.650Z,8.07
2019-04-06T21:37:38.519Z,5.13
2019-04-06T21:40:06.732Z,5.03
2019-04-06T21:42:33.096Z,8.27
2019-04-06T21:44:59.476Z,6.67
2019-04-06T21:47:25.760Z,5.97
2019-04-06T21:49:52.288Z,8.17
2019-04-06T21:52:20.264Z,6.60
2019-04-06T21:54:48.863Z,4.80
2019-04-06T21:57:16.535Z,5.37
2019-04-06T21:59:42.790Z,7.43
2019-04-06T22:02:09.026Z,6.77
2019-04-06T22:04:35.299Z,6.23
2019-04-06T22:07:02.066Z,6.63
2019-04-06T22:09:28.810Z,7.37
2019-04-06T22:11:56.575Z,5.47
2019-04-06T22:14:23.015Z,8.70
2019-04-06T22:16:49.350Z,7.43
2019-04-06T22:19:15.745Z,6.80
2019-04-06T22:21:41.956Z,8.10
2019-04-06T22:24:27.967Z,6.53
2019-04-06T22:26:54.221Z,8.57
2019-04-06T22:29:20.741Z,7.47
2019-04-06T22:31:47.036Z,7.77
2019-04-06T22:34:13.552Z,10.03
2019-04-06T22:36:40.185Z,6.60
2019-04-06T22:41:55.852Z,6.30
2019-04-06T22:44:22.222Z,6.37
2019-04-06T22:46:48.591Z,6.80
2019-04-06T22:49:14.875Z,5.30
2019-04-06T22:51:41.139Z,6.47
2019-04-06T22:54:08.008Z,6.67
2019-04-06T22:56:35.545Z,6.43
2019-04-06T22:59:02.054Z,6.83
2019-04-06T23:09:11.016Z,13.57
2019-04-06T23:11:38.292Z,8.13
2019-04-06T23:16:44.764Z,7.63
2019-04-06T23:19:11.063Z,5.93
2019-04-06T23:21:37.286Z,6.47
2019-04-06T23:24:04.741Z,7.67
2019-04-06T23:26:31.680Z,5.87
2019-04-06T23:28:58.414Z,5.97
2019-04-06T23:33:56.108Z,5.80
2019-04-06T23:36:22.693Z,9.23
2019-04-06T23:38:50.999Z,6.67
2019-04-06T23:41:18.694Z,7.23
2019-04-06T23:43:45.398Z,7.10
2019-04-06T23:46:13.089Z,6.77
2019-04-06T23:48:40.260Z,6.93
2019-04-06T23:51:06.508Z,6.53
2019-04-06T23:53:32.872Z,7.30
2019-04-06T23:55:59.820Z,8.93
2019-04-06T23:58:27.282Z,8.67
